Terminal Aerodrome Forecast
Issued by NWS St Louis, MO

Home | Current Version | Previous Version | Text Only | Print | Product List | Glossary On
Versions: 1 2 3 4 5 6 7 8 9 10 11 12 13 14 15 16 17 18 19 20 21 22
000
FTUS43 KLSX 251100
TAFCOU
TAF
KCOU 251125Z 2512/2612 29005KT 6SM BR SKC
      TEMPO 2512/2513 4SM BR
     FM251500 33004KT P6SM SKC
     FM260000 VRB03KT P6SM SKC=

USA.gov is the U.S. government's official web portal to all federal, state and local government web resources and services.